Home

PKWA Terminal Aerodrome Forecast (TAF)small logo


TAF provided by NWS Guam
2014/11/27 18:27
TAF PKWA 271723Z 2718/2818 07014G24KT P6SM VCSH SCT018 BKN050 OVC100 
      TEMPO 2718/2720 6SM -RA SCT015 BKN030

      



Site Map | Contact Us | Copyright © 2007 Atmospheric Technology Services Company. All rights reserved.